sensor_id;sensor_type;location;lat;lon;timestamp;P1;durP1;ratioP1;P2;durP2;ratioP2
40971;SDS011;26701;47.408;19.174;2023-02-18T00:01:46;18.95;;;9.48;;
40971;SDS011;26701;47.408;19.174;2023-02-18T00:04:12;16.65;;;9.15;;
40971;SDS011;26701;47.408;19.174;2023-02-18T00:06:38;20.23;;;9.82;;
40971;SDS011;26701;47.408;19.174;2023-02-18T00:09:04;22.33;;;10.60;;
40971;SDS011;26701;47.408;19.174;2023-02-18T00:11:31;20.85;;;9.85;;
40971;SDS011;26701;47.408;19.174;2023-02-18T00:13:59;19.30;;;9.88;;
40971;SDS011;26701;47.408;19.174;2023-02-18T00:16:26;17.55;;;8.82;;
40971;SDS011;26701;47.408;19.174;2023-02-18T00:18:56;16.90;;;7.47;;
40971;SDS011;26701;47.408;19.174;2023-02-18T00:21:23;14.85;;;7.97;;
40971;SDS011;26701;47.408;19.174;2023-02-18T00:23:49;12.60;;;6.10;;
40971;SDS011;26701;47.408;19.174;2023-02-18T00:26:16;12.07;;;6.55;;
40971;SDS011;26701;47.408;19.174;2023-02-18T00:28:43;11.52;;;6.22;;
40971;SDS011;26701;47.408;19.174;2023-02-18T00:31:11;15.48;;;7.38;;
40971;SDS011;26701;47.408;19.174;2023-02-18T00:33:38;10.68;;;6.00;;
40971;SDS011;26701;47.408;19.174;2023-02-18T00:36:06;12.10;;;5.47;;
40971;SDS011;26701;47.408;19.174;2023-02-18T00:38:34;15.63;;;6.05;;
40971;SDS011;26701;47.408;19.174;2023-02-18T00:41:00;12.00;;;6.53;;
40971;SDS011;26701;47.408;19.174;2023-02-18T00:43:26;8.50;;;5.18;;
40971;SDS011;26701;47.408;19.174;2023-02-18T00:45:53;12.63;;;5.40;;
40971;SDS011;26701;47.408;19.174;2023-02-18T00:48:19;8.70;;;4.70;;
40971;SDS011;26701;47.408;19.174;2023-02-18T00:50:45;9.63;;;5.15;;
40971;SDS011;26701;47.408;19.174;2023-02-18T00:53:11;10.15;;;5.18;;
40971;SDS011;26701;47.408;19.174;2023-02-18T00:55:41;8.18;;;5.07;;
40971;SDS011;26701;47.408;19.174;2023-02-18T00:58:08;11.10;;;4.80;;
40971;SDS011;26701;47.408;19.174;2023-02-18T01:00:34;9.68;;;5.53;;
40971;SDS011;26701;47.408;19.174;2023-02-18T01:03:00;9.93;;;5.35;;
40971;SDS011;26701;47.408;19.174;2023-02-18T01:05:27;9.60;;;4.72;;
40971;SDS011;26701;47.408;19.174;2023-02-18T01:07:53;9.02;;;3.97;;
40971;SDS011;26701;47.408;19.174;2023-02-18T01:10:20;10.52;;;4.55;;
40971;SDS011;26701;47.408;19.174;2023-02-18T01:12:46;7.85;;;3.90;;
40971;SDS011;26701;47.408;19.174;2023-02-18T01:15:13;7.28;;;3.45;;
40971;SDS011;26701;47.408;19.174;2023-02-18T01:17:40;7.95;;;3.58;;
40971;SDS011;26701;47.408;19.174;2023-02-18T01:20:06;7.07;;;3.17;;
40971;SDS011;26701;47.408;19.174;2023-02-18T01:22:34;7.50;;;3.53;;
40971;SDS011;26701;47.408;19.174;2023-02-18T01:25:00;5.90;;;3.30;;
40971;SDS011;26701;47.408;19.174;2023-02-18T01:27:26;5.75;;;3.38;;
40971;SDS011;26701;47.408;19.174;2023-02-18T01:29:52;7.63;;;3.10;;
40971;SDS011;26701;47.408;19.174;2023-02-18T01:32:17;5.32;;;3.30;;
40971;SDS011;26701;47.408;19.174;2023-02-18T01:34:43;8.95;;;3.13;;
40971;SDS011;26701;47.408;19.174;2023-02-18T01:37:10;6.70;;;3.05;;
40971;SDS011;26701;47.408;19.174;2023-02-18T01:39:36;5.88;;;2.58;;
40971;SDS011;26701;47.408;19.174;2023-02-18T01:42:04;5.85;;;3.10;;
40971;SDS011;26701;47.408;19.174;2023-02-18T01:44:32;6.88;;;3.55;;
40971;SDS011;26701;47.408;19.174;2023-02-18T01:46:58;7.30;;;3.70;;
40971;SDS011;26701;47.408;19.174;2023-02-18T01:49:26;7.80;;;3.70;;
40971;SDS011;26701;47.408;19.174;2023-02-18T01:51:55;7.50;;;3.42;;
40971;SDS011;26701;47.408;19.174;2023-02-18T01:54:44;6.88;;;3.13;;
40971;SDS011;26701;47.408;19.174;2023-02-18T02:00:20;6.28;;;3.50;;
40971;SDS011;26701;47.408;19.174;2023-02-18T02:02:41;7.78;;;3.65;;
40971;SDS011;26701;47.408;19.174;2023-02-18T02:05:09;6.18;;;3.15;;
40971;SDS011;26701;47.408;19.174;2023-02-18T02:07:35;5.60;;;3.53;;
40971;SDS011;26701;47.408;19.174;2023-02-18T02:10:02;7.68;;;2.72;;
40971;SDS011;26701;47.408;19.174;2023-02-18T02:15:00;5.10;;;2.78;;
40971;SDS011;26701;47.408;19.174;2023-02-18T02:35:13;2.45;;;1.05;;
40971;SDS011;26701;47.408;19.174;2023-02-18T02:37:53;2.22;;;1.00;;
40971;SDS011;26701;47.408;19.174;2023-02-18T02:49:02;2.95;;;1.00;;
40971;SDS011;26701;47.408;19.174;2023-02-18T02:54:18;1.83;;;1.20;;
40971;SDS011;26701;47.408;19.174;2023-02-18T02:56:44;1.10;;;0.95;;
40971;SDS011;26701;47.408;19.174;2023-02-18T02:59:12;3.78;;;1.17;;
40971;SDS011;26701;47.408;19.174;2023-02-18T03:07:18;3.20;;;0.95;;
40971;SDS011;26701;47.408;19.174;2023-02-18T03:10:09;3.53;;;1.05;;
40971;SDS011;26701;47.408;19.174;2023-02-18T03:12:42;2.05;;;1.20;;
40971;SDS011;26701;47.408;19.174;2023-02-18T03:15:23;4.30;;;1.10;;
40971;SDS011;26701;47.408;19.174;2023-02-18T03:20:54;2.00;;;1.10;;
40971;SDS011;26701;47.408;19.174;2023-02-18T03:23:41;4.00;;;1.00;;
40971;SDS011;26701;47.408;19.174;2023-02-18T03:26:14;2.83;;;1.35;;
40971;SDS011;26701;47.408;19.174;2023-02-18T03:28:43;1.00;;;0.70;;
40971;SDS011;26701;47.408;19.174;2023-02-18T03:31:14;4.40;;;0.90;;
40971;SDS011;26701;47.408;19.174;2023-02-18T03:33:50;3.00;;;1.10;;
40971;SDS011;26701;47.408;19.174;2023-02-18T03:36:20;0.82;;;0.75;;
40971;SDS011;26701;47.408;19.174;2023-02-18T03:38:57;2.83;;;1.05;;
40971;SDS011;26701;47.408;19.174;2023-02-18T03:41:27;1.45;;;1.00;;
40971;SDS011;26701;47.408;19.174;2023-02-18T03:43:57;4.28;;;0.90;;
40971;SDS011;26701;47.408;19.174;2023-02-18T03:46:29;1.92;;;0.85;;
40971;SDS011;26701;47.408;19.174;2023-02-18T03:48:57;1.05;;;0.93;;
40971;SDS011;26701;47.408;19.174;2023-02-18T03:51:23;2.25;;;1.30;;
40971;SDS011;26701;47.408;19.174;2023-02-18T03:53:49;2.50;;;0.80;;
40971;SDS011;26701;47.408;19.174;2023-02-18T03:56:15;3.30;;;0.93;;
40971;SDS011;26701;47.408;19.174;2023-02-18T03:58:41;0.77;;;0.70;;
40971;SDS011;26701;47.408;19.174;2023-02-18T04:01:08;2.00;;;0.95;;
40971;SDS011;26701;47.408;19.174;2023-02-18T04:03:34;3.35;;;0.77;;
40971;SDS011;26701;47.408;19.174;2023-02-18T04:05:59;1.25;;;0.70;;
40971;SDS011;26701;47.408;19.174;2023-02-18T04:08:25;2.15;;;0.95;;
40971;SDS011;26701;47.408;19.174;2023-02-18T04:10:51;1.65;;;0.90;;
40971;SDS011;26701;47.408;19.174;2023-02-18T04:13:17;1.92;;;1.05;;
40971;SDS011;26701;47.408;19.174;2023-02-18T04:15:43;1.20;;;0.80;;
40971;SDS011;26701;47.408;19.174;2023-02-18T04:18:10;1.67;;;1.17;;
40971;SDS011;26701;47.408;19.174;2023-02-18T04:20:36;1.67;;;1.10;;
40971;SDS011;26701;47.408;19.174;2023-02-18T04:23:03;2.35;;;1.10;;
40971;SDS011;26701;47.408;19.174;2023-02-18T04:25:29;2.00;;;1.23;;
40971;SDS011;26701;47.408;19.174;2023-02-18T04:27:55;3.75;;;1.42;;
40971;SDS011;26701;47.408;19.174;2023-02-18T04:30:20;2.97;;;1.52;;
40971;SDS011;26701;47.408;19.174;2023-02-18T04:32:47;1.58;;;1.20;;
40971;SDS011;26701;47.408;19.174;2023-02-18T04:35:12;1.95;;;1.45;;
40971;SDS011;26701;47.408;19.174;2023-02-18T04:37:39;3.28;;;1.60;;
40971;SDS011;26701;47.408;19.174;2023-02-18T04:40:05;3.13;;;1.55;;
40971;SDS011;26701;47.408;19.174;2023-02-18T04:42:31;3.63;;;1.75;;
40971;SDS011;26701;47.408;19.174;2023-02-18T04:44:57;3.10;;;1.60;;
40971;SDS011;26701;47.408;19.174;2023-02-18T04:47:23;3.30;;;2.08;;
40971;SDS011;26701;47.408;19.174;2023-02-18T04:49:49;2.83;;;1.70;;
40971;SDS011;26701;47.408;19.174;2023-02-18T04:52:16;4.45;;;1.92;;
40971;SDS011;26701;47.408;19.174;2023-02-18T04:54:41;3.38;;;1.80;;
40971;SDS011;26701;47.408;19.174;2023-02-18T04:57:07;3.90;;;1.65;;
40971;SDS011;26701;47.408;19.174;2023-02-18T04:59:33;4.63;;;2.45;;
40971;SDS011;26701;47.408;19.174;2023-02-18T05:01:59;2.78;;;2.05;;
40971;SDS011;26701;47.408;19.174;2023-02-18T05:04:25;4.32;;;2.30;;
40971;SDS011;26701;47.408;19.174;2023-02-18T05:06:51;5.18;;;2.10;;
40971;SDS011;26701;47.408;19.174;2023-02-18T05:09:17;4.47;;;3.03;;
40971;SDS011;26701;47.408;19.174;2023-02-18T05:11:44;2.92;;;1.55;;
40971;SDS011;26701;47.408;19.174;2023-02-18T05:14:11;3.05;;;1.60;;
40971;SDS011;26701;47.408;19.174;2023-02-18T05:16:37;6.25;;;2.08;;
40971;SDS011;26701;47.408;19.174;2023-02-18T05:19:04;4.68;;;2.10;;
40971;SDS011;26701;47.408;19.174;2023-02-18T05:21:30;5.40;;;2.47;;
40971;SDS011;26701;47.408;19.174;2023-02-18T05:23:56;4.47;;;2.72;;
40971;SDS011;26701;47.408;19.174;2023-02-18T05:26:22;6.68;;;2.65;;
40971;SDS011;26701;47.408;19.174;2023-02-18T05:28:48;5.13;;;2.03;;
40971;SDS011;26701;47.408;19.174;2023-02-18T05:31:15;4.35;;;2.20;;
40971;SDS011;26701;47.408;19.174;2023-02-18T05:33:41;3.42;;;2.10;;
40971;SDS011;26701;47.408;19.174;2023-02-18T05:36:07;4.90;;;2.50;;
40971;SDS011;26701;47.408;19.174;2023-02-18T05:38:33;6.85;;;2.25;;
40971;SDS011;26701;47.408;19.174;2023-02-18T05:40:59;5.40;;;2.15;;
40971;SDS011;26701;47.408;19.174;2023-02-18T05:43:26;5.55;;;2.53;;
40971;SDS011;26701;47.408;19.174;2023-02-18T05:45:52;5.20;;;2.40;;
40971;SDS011;26701;47.408;19.174;2023-02-18T05:48:18;6.85;;;3.22;;
40971;SDS011;26701;47.408;19.174;2023-02-18T05:50:44;5.53;;;2.65;;
40971;SDS011;26701;47.408;19.174;2023-02-18T05:53:10;4.43;;;2.40;;
40971;SDS011;26701;47.408;19.174;2023-02-18T05:55:36;8.10;;;2.90;;
40971;SDS011;26701;47.408;19.174;2023-02-18T05:58:03;5.88;;;2.97;;
40971;SDS011;26701;47.408;19.174;2023-02-18T06:00:30;4.50;;;2.50;;
40971;SDS011;26701;47.408;19.174;2023-02-18T06:02:57;7.72;;;2.60;;
40971;SDS011;26701;47.408;19.174;2023-02-18T06:05:23;4.38;;;2.38;;
40971;SDS011;26701;47.408;19.174;2023-02-18T06:07:49;3.92;;;1.95;;
40971;SDS011;26701;47.408;19.174;2023-02-18T06:10:15;4.93;;;1.85;;
40971;SDS011;26701;47.408;19.174;2023-02-18T06:12:42;5.10;;;2.17;;
40971;SDS011;26701;47.408;19.174;2023-02-18T06:15:08;2.90;;;1.83;;
40971;SDS011;26701;47.408;19.174;2023-02-18T06:17:34;3.17;;;1.33;;
40971;SDS011;26701;47.408;19.174;2023-02-18T06:20:00;2.30;;;1.23;;
40971;SDS011;26701;47.408;19.174;2023-02-18T06:22:26;3.67;;;1.75;;
40971;SDS011;26701;47.408;19.174;2023-02-18T06:24:52;4.18;;;2.10;;
40971;SDS011;26701;47.408;19.174;2023-02-18T06:27:18;2.83;;;1.55;;
40971;SDS011;26701;47.408;19.174;2023-02-18T06:29:44;1.75;;;1.23;;
40971;SDS011;26701;47.408;19.174;2023-02-18T06:32:10;3.03;;;1.60;;
40971;SDS011;26701;47.408;19.174;2023-02-18T06:34:36;2.42;;;1.50;;
40971;SDS011;26701;47.408;19.174;2023-02-18T06:37:02;2.63;;;1.40;;
40971;SDS011;26701;47.408;19.174;2023-02-18T06:39:28;1.60;;;0.95;;
40971;SDS011;26701;47.408;19.174;2023-02-18T06:41:54;1.63;;;1.10;;
40971;SDS011;26701;47.408;19.174;2023-02-18T06:44:20;1.45;;;1.20;;
40971;SDS011;26701;47.408;19.174;2023-02-18T06:46:46;1.95;;;1.02;;
40971;SDS011;26701;47.408;19.174;2023-02-18T06:49:12;2.95;;;1.50;;
40971;SDS011;26701;47.408;19.174;2023-02-18T06:51:38;2.22;;;1.25;;
40971;SDS011;26701;47.408;19.174;2023-02-18T06:54:04;2.78;;;1.08;;
40971;SDS011;26701;47.408;19.174;2023-02-18T06:56:30;1.52;;;1.00;;
40971;SDS011;26701;47.408;19.174;2023-02-18T06:58:56;2.50;;;1.00;;
40971;SDS011;26701;47.408;19.174;2023-02-18T07:01:22;2.05;;;1.23;;
40971;SDS011;26701;47.408;19.174;2023-02-18T07:03:48;25.48;;;11.23;;
40971;SDS011;26701;47.408;19.174;2023-02-18T07:06:14;4.30;;;2.50;;
40971;SDS011;26701;47.408;19.174;2023-02-18T07:08:40;20.55;;;10.55;;
40971;SDS011;26701;47.408;19.174;2023-02-18T07:11:07;15.23;;;13.75;;
40971;SDS011;26701;47.408;19.174;2023-02-18T07:13:32;7.13;;;6.45;;
40971;SDS011;26701;47.408;19.174;2023-02-18T07:15:59;3.08;;;1.85;;
40971;SDS011;26701;47.408;19.174;2023-02-18T07:18:25;1.75;;;1.45;;
40971;SDS011;26701;47.408;19.174;2023-02-18T07:20:51;1.80;;;1.13;;
40971;SDS011;26701;47.408;19.174;2023-02-18T07:23:17;5.13;;;3.35;;
40971;SDS011;26701;47.408;19.174;2023-02-18T07:25:43;2.90;;;1.85;;
40971;SDS011;26701;47.408;19.174;2023-02-18T07:28:09;3.28;;;2.60;;
40971;SDS011;26701;47.408;19.174;2023-02-18T07:30:34;3.33;;;2.40;;
40971;SDS011;26701;47.408;19.174;2023-02-18T07:33:00;4.40;;;3.10;;
40971;SDS011;26701;47.408;19.174;2023-02-18T07:35:26;3.75;;;2.05;;
40971;SDS011;26701;47.408;19.174;2023-02-18T07:37:52;6.45;;;5.20;;
40971;SDS011;26701;47.408;19.174;2023-02-18T07:40:19;4.53;;;3.28;;
40971;SDS011;26701;47.408;19.174;2023-02-18T07:42:46;4.05;;;1.63;;
40971;SDS011;26701;47.408;19.174;2023-02-18T07:45:11;3.25;;;1.80;;
40971;SDS011;26701;47.408;19.174;2023-02-18T07:47:38;3.00;;;1.50;;
40971;SDS011;26701;47.408;19.174;2023-02-18T07:50:05;2.88;;;1.63;;
40971;SDS011;26701;47.408;19.174;2023-02-18T07:52:32;2.60;;;1.45;;
40971;SDS011;26701;47.408;19.174;2023-02-18T07:54:58;4.00;;;1.83;;
40971;SDS011;26701;47.408;19.174;2023-02-18T07:57:24;1.77;;;1.38;;
40971;SDS011;26701;47.408;19.174;2023-02-18T07:59:50;2.58;;;1.42;;
40971;SDS011;26701;47.408;19.174;2023-02-18T08:02:17;2.75;;;2.20;;
40971;SDS011;26701;47.408;19.174;2023-02-18T08:04:44;4.10;;;1.63;;
40971;SDS011;26701;47.408;19.174;2023-02-18T08:07:13;75.70;;;41.33;;
40971;SDS011;26701;47.408;19.174;2023-02-18T08:09:40;9.70;;;6.43;;
40971;SDS011;26701;47.408;19.174;2023-02-18T08:12:07;5.20;;;4.63;;
40971;SDS011;26701;47.408;19.174;2023-02-18T08:14:33;3.15;;;2.08;;
40971;SDS011;26701;47.408;19.174;2023-02-18T08:16:59;2.58;;;1.50;;
40971;SDS011;26701;47.408;19.174;2023-02-18T08:19:25;4.50;;;3.58;;
40971;SDS011;26701;47.408;19.174;2023-02-18T08:21:51;2.63;;;1.50;;
40971;SDS011;26701;47.408;19.174;2023-02-18T08:24:17;3.80;;;2.33;;
40971;SDS011;26701;47.408;19.174;2023-02-18T08:26:43;5.72;;;2.85;;
40971;SDS011;26701;47.408;19.174;2023-02-18T08:29:09;3.08;;;1.83;;
40971;SDS011;26701;47.408;19.174;2023-02-18T08:31:35;4.18;;;2.90;;
40971;SDS011;26701;47.408;19.174;2023-02-18T08:34:02;2.75;;;1.50;;
40971;SDS011;26701;47.408;19.174;2023-02-18T08:36:28;2.63;;;1.38;;
40971;SDS011;26701;47.408;19.174;2023-02-18T08:38:55;3.30;;;1.52;;
40971;SDS011;26701;47.408;19.174;2023-02-18T08:41:21;3.22;;;1.30;;
40971;SDS011;26701;47.408;19.174;2023-02-18T08:43:47;5.93;;;4.05;;
40971;SDS011;26701;47.408;19.174;2023-02-18T08:46:13;4.38;;;2.60;;
40971;SDS011;26701;47.408;19.174;2023-02-18T08:48:40;2.20;;;1.42;;
40971;SDS011;26701;47.408;19.174;2023-02-18T08:51:24;3.10;;;1.77;;
40971;SDS011;26701;47.408;19.174;2023-02-18T08:53:50;3.65;;;1.35;;
40971;SDS011;26701;47.408;19.174;2023-02-18T08:56:17;2.58;;;1.50;;
40971;SDS011;26701;47.408;19.174;2023-02-18T08:58:43;4.13;;;1.67;;
40971;SDS011;26701;47.408;19.174;2023-02-18T09:01:10;1.30;;;0.90;;
40971;SDS011;26701;47.408;19.174;2023-02-18T09:03:36;2.15;;;1.02;;
40971;SDS011;26701;47.408;19.174;2023-02-18T09:06:02;2.05;;;1.10;;
40971;SDS011;26701;47.408;19.174;2023-02-18T09:08:28;2.47;;;1.35;;
40971;SDS011;26701;47.408;19.174;2023-02-18T09:10:58;2.50;;;1.30;;
40971;SDS011;26701;47.408;19.174;2023-02-18T09:13:26;4.13;;;1.95;;
40971;SDS011;26701;47.408;19.174;2023-02-18T09:16:12;15.68;;;10.80;;
40971;SDS011;26701;47.408;19.174;2023-02-18T09:18:40;5.82;;;3.92;;
40971;SDS011;26701;47.408;19.174;2023-02-18T09:21:06;25.35;;;18.08;;
40971;SDS011;26701;47.408;19.174;2023-02-18T09:23:33;3.53;;;2.53;;
40971;SDS011;26701;47.408;19.174;2023-02-18T09:26:02;4.03;;;3.10;;
40971;SDS011;26701;47.408;19.174;2023-02-18T09:28:29;2.28;;;1.50;;
40971;SDS011;26701;47.408;19.174;2023-02-18T09:30:55;3.00;;;2.15;;
40971;SDS011;26701;47.408;19.174;2023-02-18T09:33:21;3.10;;;2.28;;
40971;SDS011;26701;47.408;19.174;2023-02-18T09:35:48;2.75;;;1.95;;
40971;SDS011;26701;47.408;19.174;2023-02-18T09:38:15;3.50;;;2.10;;
40971;SDS011;26701;47.408;19.174;2023-02-18T09:40:43;13.02;;;11.15;;
40971;SDS011;26701;47.408;19.174;2023-02-18T09:43:12;4.85;;;2.00;;
40971;SDS011;26701;47.408;19.174;2023-02-18T09:45:57;3.97;;;2.17;;
40971;SDS011;26701;47.408;19.174;2023-02-18T09:48:25;5.05;;;2.97;;
40971;SDS011;26701;47.408;19.174;2023-02-18T09:50:54;5.80;;;4.10;;
40971;SDS011;26701;47.408;19.174;2023-02-18T09:53:22;3.05;;;2.03;;
40971;SDS011;26701;47.408;19.174;2023-02-18T09:55:50;13.65;;;8.00;;
40971;SDS011;26701;47.408;19.174;2023-02-18T09:58:28;9.00;;;6.28;;
40971;SDS011;26701;47.408;19.174;2023-02-18T10:03:30;2.67;;;2.13;;
40971;SDS011;26701;47.408;19.174;2023-02-18T10:08:27;10.10;;;6.85;;
40971;SDS011;26701;47.408;19.174;2023-02-18T10:10:56;11.68;;;7.60;;
40971;SDS011;26701;47.408;19.174;2023-02-18T10:13:23;2.90;;;1.92;;
40971;SDS011;26701;47.408;19.174;2023-02-18T10:15:52;9.23;;;5.35;;
40971;SDS011;26701;47.408;19.174;2023-02-18T10:20:51;4.75;;;2.28;;
40971;SDS011;26701;47.408;19.174;2023-02-18T10:23:20;11.52;;;6.72;;
40971;SDS011;26701;47.408;19.174;2023-02-18T10:25:47;15.02;;;9.32;;
40971;SDS011;26701;47.408;19.174;2023-02-18T10:28:14;7.38;;;6.15;;
40971;SDS011;26701;47.408;19.174;2023-02-18T10:30:42;6.00;;;5.32;;
40971;SDS011;26701;47.408;19.174;2023-02-18T10:33:31;6.93;;;4.22;;
40971;SDS011;26701;47.408;19.174;2023-02-18T10:39:06;3.47;;;1.60;;
40971;SDS011;26701;47.408;19.174;2023-02-18T10:47:41;3.97;;;3.58;;
40971;SDS011;26701;47.408;19.174;2023-02-18T10:50:41;3.53;;;2.13;;
40971;SDS011;26701;47.408;19.174;2023-02-18T10:53:43;8.82;;;3.75;;
40971;SDS011;26701;47.408;19.174;2023-02-18T10:56:05;2.17;;;0.75;;
40971;SDS011;26701;47.408;19.174;2023-02-18T10:59:08;4.15;;;3.00;;
40971;SDS011;26701;47.408;19.174;2023-02-18T11:01:23;8.75;;;8.00;;
40971;SDS011;26701;47.408;19.174;2023-02-18T11:03:51;19.27;;;15.98;;
40971;SDS011;26701;47.408;19.174;2023-02-18T11:08:55;6.32;;;4.57;;
40971;SDS011;26701;47.408;19.174;2023-02-18T11:11:32;8.75;;;6.20;;
40971;SDS011;26701;47.408;19.174;2023-02-18T11:14:03;4.03;;;1.92;;
40971;SDS011;26701;47.408;19.174;2023-02-18T11:16:36;17.10;;;13.02;;
40971;SDS011;26701;47.408;19.174;2023-02-18T11:19:05;9.57;;;5.30;;
40971;SDS011;26701;47.408;19.174;2023-02-18T11:21:50;17.25;;;11.68;;
40971;SDS011;26701;47.408;19.174;2023-02-18T11:24:17;9.18;;;6.72;;
40971;SDS011;26701;47.408;19.174;2023-02-18T11:26:44;1.60;;;1.50;;
40971;SDS011;26701;47.408;19.174;2023-02-18T11:31:41;3.83;;;2.90;;
40971;SDS011;26701;47.408;19.174;2023-02-18T11:34:17;2.22;;;1.80;;
40971;SDS011;26701;47.408;19.174;2023-02-18T11:36:45;2.65;;;2.05;;
40971;SDS011;26701;47.408;19.174;2023-02-18T11:39:30;8.75;;;7.03;;
40971;SDS011;26701;47.408;19.174;2023-02-18T11:42:05;3.00;;;2.58;;
40971;SDS011;26701;47.408;19.174;2023-02-18T11:44:32;9.10;;;7.40;;
40971;SDS011;26701;47.408;19.174;2023-02-18T11:47:05;5.28;;;3.22;;
40971;SDS011;26701;47.408;19.174;2023-02-18T11:49:57;4.32;;;2.70;;
40971;SDS011;26701;47.408;19.174;2023-02-18T11:52:26;5.22;;;2.80;;
40971;SDS011;26701;47.408;19.174;2023-02-18T11:55:01;3.97;;;2.70;;
40971;SDS011;26701;47.408;19.174;2023-02-18T11:57:36;3.35;;;2.17;;
40971;SDS011;26701;47.408;19.174;2023-02-18T12:00:15;3.00;;;2.03;;
40971;SDS011;26701;47.408;19.174;2023-02-18T12:03:02;3.15;;;2.05;;
40971;SDS011;26701;47.408;19.174;2023-02-18T12:05:37;3.65;;;1.85;;
40971;SDS011;26701;47.408;19.174;2023-02-18T12:08:09;4.68;;;2.35;;
40971;SDS011;26701;47.408;19.174;2023-02-18T12:10:46;4.65;;;2.67;;
40971;SDS011;26701;47.408;19.174;2023-02-18T12:16:21;3.67;;;1.98;;
40971;SDS011;26701;47.408;19.174;2023-02-18T12:19:08;2.30;;;1.75;;
40971;SDS011;26701;47.408;19.174;2023-02-18T12:27:11;3.63;;;1.60;;
40971;SDS011;26701;47.408;19.174;2023-02-18T12:35:36;2.05;;;1.23;;
40971;SDS011;26701;47.408;19.174;2023-02-18T12:44:06;1.17;;;1.02;;
40971;SDS011;26701;47.408;19.174;2023-02-18T12:46:54;2.50;;;1.25;;
40971;SDS011;26701;47.408;19.174;2023-02-18T12:59:12;3.03;;;1.17;;
40971;SDS011;26701;47.408;19.174;2023-02-18T13:07:31;0.70;;;0.70;;
40971;SDS011;26701;47.408;19.174;2023-02-18T13:12:48;1.63;;;0.85;;
40971;SDS011;26701;47.408;19.174;2023-02-18T13:15:20;2.85;;;0.98;;
40971;SDS011;26701;47.408;19.174;2023-02-18T13:18:02;1.55;;;0.90;;
40971;SDS011;26701;47.408;19.174;2023-02-18T13:20:37;3.40;;;0.88;;
40971;SDS011;26701;47.408;19.174;2023-02-18T13:23:07;1.25;;;0.90;;
40971;SDS011;26701;47.408;19.174;2023-02-18T13:25:46;1.67;;;1.05;;
40971;SDS011;26701;47.408;19.174;2023-02-18T13:31:14;1.23;;;0.93;;
40971;SDS011;26701;47.408;19.174;2023-02-18T13:36:35;2.05;;;0.65;;
40971;SDS011;26701;47.408;19.174;2023-02-18T13:39:15;0.70;;;0.52;;
40971;SDS011;26701;47.408;19.174;2023-02-18T13:41:46;1.33;;;0.80;;
40971;SDS011;26701;47.408;19.174;2023-02-18T13:46:49;3.92;;;0.70;;
40971;SDS011;26701;47.408;19.174;2023-02-18T13:49:17;1.33;;;0.98;;
40971;SDS011;26701;47.408;19.174;2023-02-18T13:51:47;1.27;;;0.80;;
40971;SDS011;26701;47.408;19.174;2023-02-18T13:54:17;2.92;;;0.95;;
40971;SDS011;26701;47.408;19.174;2023-02-18T13:56:46;0.95;;;0.80;;
40971;SDS011;26701;47.408;19.174;2023-02-18T13:59:17;0.95;;;0.57;;
40971;SDS011;26701;47.408;19.174;2023-02-18T14:01:47;0.77;;;0.60;;
40971;SDS011;26701;47.408;19.174;2023-02-18T14:04:57;1.42;;;0.68;;
40971;SDS011;26701;47.408;19.174;2023-02-18T14:31:15;21.50;;;12.90;;
40971;SDS011;26701;47.408;19.174;2023-02-18T14:36:37;22.00;;;12.82;;
40971;SDS011;26701;47.408;19.174;2023-02-18T14:42:26;20.30;;;11.40;;
40971;SDS011;26701;47.408;19.174;2023-02-18T14:50:51;22.80;;;12.75;;
40971;SDS011;26701;47.408;19.174;2023-02-18T14:53:19;22.60;;;12.20;;
40971;SDS011;26701;47.408;19.174;2023-02-18T14:55:49;26.13;;;14.20;;
40971;SDS011;26701;47.408;19.174;2023-02-18T14:58:28;29.33;;;14.65;;
40971;SDS011;26701;47.408;19.174;2023-02-18T15:00:55;29.02;;;14.75;;
40971;SDS011;26701;47.408;19.174;2023-02-18T15:03:21;28.75;;;16.40;;
40971;SDS011;26701;47.408;19.174;2023-02-18T15:05:48;32.38;;;17.58;;
40971;SDS011;26701;47.408;19.174;2023-02-18T15:08:16;36.30;;;20.08;;
40971;SDS011;26701;47.408;19.174;2023-02-18T15:10:48;37.83;;;20.05;;
40971;SDS011;26701;47.408;19.174;2023-02-18T15:13:24;35.80;;;20.02;;
40971;SDS011;26701;47.408;19.174;2023-02-18T15:15:52;41.40;;;22.83;;
40971;SDS011;26701;47.408;19.174;2023-02-18T15:18:21;40.60;;;23.08;;
40971;SDS011;26701;47.408;19.174;2023-02-18T15:23:14;49.40;;;21.65;;
40971;SDS011;26701;47.408;19.174;2023-02-18T15:25:44;44.17;;;22.17;;
40971;SDS011;26701;47.408;19.174;2023-02-18T15:28:26;46.88;;;22.92;;
40971;SDS011;26701;47.408;19.174;2023-02-18T15:31:00;46.47;;;24.48;;
40971;SDS011;26701;47.408;19.174;2023-02-18T15:33:28;40.58;;;23.45;;
40971;SDS011;26701;47.408;19.174;2023-02-18T15:36:04;44.10;;;22.38;;
40971;SDS011;26701;47.408;19.174;2023-02-18T15:38:30;46.10;;;22.50;;
40971;SDS011;26701;47.408;19.174;2023-02-18T15:40:57;46.20;;;23.70;;
40971;SDS011;26701;47.408;19.174;2023-02-18T15:43:24;54.47;;;25.05;;
40971;SDS011;26701;47.408;19.174;2023-02-18T15:45:55;50.10;;;25.10;;
40971;SDS011;26701;47.408;19.174;2023-02-18T15:48:38;53.53;;;26.25;;
40971;SDS011;26701;47.408;19.174;2023-02-18T15:51:13;50.38;;;24.20;;
40971;SDS011;26701;47.408;19.174;2023-02-18T15:53:43;58.40;;;28.08;;
40971;SDS011;26701;47.408;19.174;2023-02-18T15:56:13;51.83;;;25.65;;
40971;SDS011;26701;47.408;19.174;2023-02-18T15:58:40;52.28;;;25.48;;
40971;SDS011;26701;47.408;19.174;2023-02-18T16:01:22;51.20;;;23.85;;
40971;SDS011;26701;47.408;19.174;2023-02-18T16:03:50;53.42;;;25.50;;
40971;SDS011;26701;47.408;19.174;2023-02-18T16:06:27;49.05;;;26.55;;
40971;SDS011;26701;47.408;19.174;2023-02-18T16:09:07;52.10;;;26.42;;
40971;SDS011;26701;47.408;19.174;2023-02-18T16:11:47;59.70;;;26.67;;
40971;SDS011;26701;47.408;19.174;2023-02-18T16:14:48;56.67;;;28.73;;
40971;SDS011;26701;47.408;19.174;2023-02-18T16:19:33;55.58;;;28.45;;
40971;SDS011;26701;47.408;19.174;2023-02-18T16:22:05;55.05;;;24.23;;
40971;SDS011;26701;47.408;19.174;2023-02-18T16:24:32;60.85;;;28.02;;
40971;SDS011;26701;47.408;19.174;2023-02-18T16:27:03;66.05;;;30.48;;
40971;SDS011;26701;47.408;19.174;2023-02-18T16:29:35;61.60;;;30.37;;
40971;SDS011;26701;47.408;19.174;2023-02-18T16:32:01;59.28;;;28.42;;
40971;SDS011;26701;47.408;19.174;2023-02-18T16:34:27;58.33;;;28.77;;
40971;SDS011;26701;47.408;19.174;2023-02-18T16:36:53;63.28;;;30.60;;
40971;SDS011;26701;47.408;19.174;2023-02-18T16:39:39;65.85;;;27.88;;
40971;SDS011;26701;47.408;19.174;2023-02-18T16:42:08;59.15;;;28.13;;
40971;SDS011;26701;47.408;19.174;2023-02-18T16:44:35;62.50;;;28.95;;
40971;SDS011;26701;47.408;19.174;2023-02-18T16:47:01;57.83;;;27.95;;
40971;SDS011;26701;47.408;19.174;2023-02-18T16:49:27;67.97;;;31.67;;
40971;SDS011;26701;47.408;19.174;2023-02-18T16:51:54;72.97;;;31.58;;
40971;SDS011;26701;47.408;19.174;2023-02-18T16:54:20;62.50;;;30.15;;
40971;SDS011;26701;47.408;19.174;2023-02-18T16:56:46;69.28;;;30.92;;
40971;SDS011;26701;47.408;19.174;2023-02-18T16:59:12;64.75;;;31.00;;
40971;SDS011;26701;47.408;19.174;2023-02-18T17:01:39;70.20;;;31.92;;
40971;SDS011;26701;47.408;19.174;2023-02-18T17:06:38;82.32;;;39.75;;
40971;SDS011;26701;47.408;19.174;2023-02-18T17:09:37;77.05;;;36.22;;
40971;SDS011;26701;47.408;19.174;2023-02-18T17:11:56;76.43;;;32.70;;
40971;SDS011;26701;47.408;19.174;2023-02-18T17:14:23;66.63;;;33.13;;
40971;SDS011;26701;47.408;19.174;2023-02-18T17:16:50;71.40;;;33.60;;